Sunday, December 17, 2017, 2:41 PM EST
Back to Local

KLWB, Lewisburg / Greenbrier

Location: Frankford, WV, United States Lat: 37.867
Local Time: 2:41 PM EST (19:41 GMT) Lon: -80.4
Time Zone: US/Eastern Elev: 2303 ft

Show me the last for .
Show Coded

Time T Td Feel RH Dir Speed Gust Alt SLP Vis Weather Sky Remarks
2017-12-17 14:15 39 28 37 63 30° 3 - 30.13 - 10 OVC070 None
2017-12-17 13:55 38 28 34 64 20° 6 - 30.14 - 10 OVC070 None
2017-12-17 13:35 38 27 - 62 - Calm - 30.16 - 10 OVC080 None
2017-12-17 13:15 38 27 - 62 - Calm - 30.18 - 10 OVC080 None
2017-12-17 12:55 38 26 - 60 - Calm - 30.18 - 10 SCT065 OVC090 6-hr Min Temp (1pm): 27.3°F
6-hr Max Temp (1pm): 38.3°F
2017-12-17 12:35 37 26 - 64 - Calm - 30.19 - 10 SCT065 SCT080 OVC090 None
2017-12-17 12:15 37 26 - 66 - Calm - 30.19 - 10 OVC100 None
2017-12-17 11:55 36 27 - 67 - Calm - 30.21 - 10 SCT090 OVC100 None
2017-12-17 11:35 36 27 33 70 30° 3 - 30.22 - 10 SCT080 BKN090 OVC110 None
2017-12-17 11:15 35 27 - 73 - Calm - 30.24 - 10 OVC110 None
2017-12-17 10:55 34 28 - 76 - Calm - 30.26 - 10 BKN120 None
2017-12-17 10:35 34 27 29 74 20° 6 - 30.26 - 10 SCT120 None
2017-12-17 10:15 33 27 27 77 60° 6 - 30.25 - 10 BKN110 None
2017-12-17 09:55 32 27 27 82 60° 5 - 30.26 - 10 BKN110 None
2017-12-17 09:35 31 26 28 80 50° 3 - 30.26 - 10 SCT120 None
2017-12-17 09:15 30 26 25 83 30° 6 - 30.23 - 10 CLR None
2017-12-17 08:55 29 25 25 83 10° 5 - 30.22 - 10 CLR None
2017-12-17 08:35 28 24 23 84 10° 5 - 30.22 - 10 CLR None
2017-12-17 08:15 28 24 24 84 20° 3 - 30.22 - 10 CLR None
2017-12-17 07:55 28 23 - 82 - Calm - 30.22 - 10 CLR None
2017-12-17 07:35 28 24 - 84 - Calm - 30.24 - 10 CLR None
2017-12-17 07:15 28 23 - 81 - Calm - 30.23 - 10 CLR None
2017-12-17 06:55 28 23 - 82 - Calm - 30.23 - 10 CLR 6-hr Min Temp (7am): 24.6°F
6-hr Max Temp (7am): 29.7°F
2017-12-17 06:35 28 23 24 80 200° 3 - 30.25 - 10 CLR None
2017-12-17 06:15 26 22 - 84 - Calm - 30.23 - 10 CLR None
2017-12-17 05:55 26 22 - 84 - Calm - 30.23 - 10 CLR None
2017-12-17 05:35 26 22 - 85 - Calm - 30.23 - 10 CLR None
2017-12-17 05:15 26 22 - 84 - Calm - 30.23 - 10 CLR None
2017-12-17 04:55 25 21 - 85 - Calm - 30.21 - 10 CLR None
2017-12-17 04:35 25 21 - 86 - Calm - 30.21 - 10 CLR None
2017-12-17 04:15 25 21 - 85 - Calm - 30.21 - 10 CLR None
2017-12-17 03:55 27 21 - 79 - Calm - 30.22 - 10 CLR None
2017-12-17 03:35 29 22 - 75 - Calm - 30.23 - 10 CLR None
2017-12-17 03:15 28 22 - 79 - Calm - 30.23 - 10 CLR None
2017-12-17 02:55 26 21 - 82 - Calm - 30.23 - 10 CLR None
2017-12-17 02:35 28 22 - 77 - Calm - 30.24 - 10 CLR None
2017-12-17 02:15 28 22 - 78 - Calm - 30.23 - 10 CLR None
2017-12-17 01:55 28 22 - 78 - Calm - 30.23 - 10 CLR None
2017-12-17 01:35 28 22 - 78 - Calm - 30.22 - 10 CLR None
2017-12-17 01:15 28 22 - 76 - Calm - 30.22 - 10 CLR None
2017-12-17 00:55 27 22 - 80 - Calm - 30.22 - 10 CLR 6-hr Min Temp (1am): 25.5°F
6-hr Max Temp (1am): 37.4°F
2017-12-17 00:35 28 22 25 75 190° 3 - 30.22 - 10 CLR None
2017-12-17 00:15 30 23 - 74 - Calm - 30.21 - 10 CLR None
2017-12-16 23:55 30 22 - 72 - Calm - 30.22 - 10 CLR 24-hr Min Temp (12am): 25.5°F
24-hr Max Temp (12am): 43.3°F
2017-12-16 23:35 30 22 - 72 - Calm - 30.22 - 10 CLR None
2017-12-16 23:15 29 22 24 73 210° 5 - 30.21 - 10 CLR None
2017-12-16 22:55 30 22 27 70 200° 3 - 30.20 - 10 CLR None
2017-12-16 22:15 31 22 26 67 220° 5 - 30.19 - 10 CLR None
2017-12-16 21:55 28 21 - 72 - Calm - 30.18 - 10 CLR None
2017-12-16 21:35 33 22 30 65 240° 3 - 30.18 - 10 CLR None
2017-12-16 21:15 33 22 30 64 230° 3 - 30.18 - 10 CLR None
2017-12-16 20:55 33 22 - 62 - Calm - 30.17 - 10 CLR None
2017-12-16 20:35 34 23 - 61 - Calm - 30.17 - 10 CLR None
2017-12-16 20:15 35 23 32 59 220° 3 - 30.17 - 10 CLR None
2017-12-16 19:55 34 23 31 61 210° 3 - 30.16 - 10 CLR None
2017-12-16 19:35 35 23 32 60 210° 3 - 30.15 - 10 CLR None
2017-12-16 19:15 35 23 - 60 - Calm - 30.15 - 10 CLR None
2017-12-16 18:55 37 23 - 55 - Calm - 30.14 - 10 CLR 6-hr Min Temp (7pm): 37.4°F
6-hr Max Temp (7pm): 43.3°F
2017-12-16 18:35 38 23 - 55 - Calm - 30.14 - 10 CLR None
2017-12-16 18:15 39 23 - 51 - Calm - 30.13 - 10 CLR None
2017-12-16 17:55 39 23 37 51 250° 3 - 30.13 - 10 CLR None
2017-12-16 17:35 39 23 36 51 250° 5 - 30.12 - 10 CLR None
2017-12-16 17:15 40 23 37 50 250° 5 - 30.12 - 10 CLR None
2017-12-16 16:55 41 23 38 49 260° 5 - 30.11 - 10 CLR None
2017-12-16 16:35 42 23 38 47 250° 6 - 30.10 - 10 CLR None
2017-12-16 16:15 43 23 40 45 260° 5 - 30.10 - 10 CLR None
2017-12-16 15:55 43 23 39 44 260° 7 - 30.10 - 10 CLR None
2017-12-16 15:35 43 23 38 44 260° 9 - 30.10 - 10 CLR None
2017-12-16 15:15 43 24 37 46 260° 10 - 30.10 - 10 CLR None
2017-12-16 14:55 43 24 37 47 240° 10 - 30.10 - 10 CLR None

Support USWX by starting your Amazon purchase here.